createdAt,value
2023-03-20T00:03:15.659Z,100611.59
2023-03-20T00:08:21.411Z,100607.97
2023-03-20T00:13:28.521Z,100600.55
2023-03-20T00:18:34.488Z,100593.65
2023-03-20T00:23:40.461Z,100598.27
2023-03-20T00:28:48.031Z,100596.18
2023-03-20T00:33:56.196Z,100594.96
2023-03-20T00:39:01.878Z,100593.06
2023-03-20T00:44:19.902Z,100589.98
2023-03-20T00:49:28.208Z,100586.00
2023-03-20T00:54:34.014Z,100580.30
2023-03-20T00:59:46.923Z,100580.27
2023-03-20T01:04:52.738Z,100577.30
2023-03-20T01:09:58.322Z,100576.05
2023-03-20T01:15:04.438Z,100570.70
2023-03-20T01:20:16.826Z,100570.15
2023-03-20T01:25:23.113Z,100573.89
2023-03-20T01:30:30.605Z,100574.36
2023-03-20T01:35:36.460Z,100572.23
2023-03-20T01:40:51.388Z,100571.03
2023-03-20T01:46:04.814Z,100561.59
2023-03-20T01:51:11.769Z,100562.52
2023-03-20T01:56:20.127Z,100557.23
2023-03-20T02:01:29.420Z,100555.81
2023-03-20T02:06:36.205Z,100553.73
2023-03-20T02:12:10.291Z,100546.64
2023-03-20T02:17:16.668Z,100539.21
2023-03-20T02:23:00.673Z,100538.86
2023-03-20T02:28:39.253Z,100535.58
2023-03-20T02:34:35.731Z,100539.00
2023-03-20T02:39:52.247Z,100538.30
2023-03-20T02:45:13.108Z,100536.03
2023-03-20T02:50:27.352Z,100533.80
2023-03-20T02:55:44.045Z,100531.76
2023-03-20T03:00:58.228Z,100530.57
2023-03-20T03:06:10.594Z,100530.20
2023-03-20T03:11:17.561Z,100527.44
2023-03-20T03:16:27.340Z,100526.19
2023-03-20T03:21:35.904Z,100527.00
2023-03-20T03:26:42.927Z,100529.48
2023-03-20T03:31:49.409Z,100529.42
2023-03-20T03:37:02.944Z,100529.12
2023-03-20T03:42:15.829Z,100525.58
2023-03-20T03:47:27.908Z,100520.41
2023-03-20T03:52:34.768Z,100516.00
2023-03-20T03:57:46.558Z,100516.65
2023-03-20T04:02:56.385Z,100510.38
2023-03-20T04:08:04.188Z,100510.27
2023-03-20T04:13:10.600Z,100506.91
2023-03-20T04:18:18.392Z,100509.16
2023-03-20T04:23:25.310Z,100510.41
2023-03-20T04:28:31.118Z,100510.91
2023-03-20T04:33:57.035Z,100515.09
2023-03-20T04:39:14.703Z,100517.33
2023-03-20T04:44:20.562Z,100519.93
2023-03-20T04:49:28.765Z,100518.35
2023-03-20T04:54:34.984Z,100514.37
2023-03-20T04:59:41.218Z,100519.68
2023-03-20T05:04:47.157Z,100521.44
2023-03-20T05:09:54.078Z,100525.66
2023-03-20T05:14:59.629Z,100522.44
2023-03-20T05:20:23.849Z,100517.02
2023-03-20T05:25:42.489Z,100521.86
2023-03-20T05:31:16.300Z,100513.97
2023-03-20T05:36:37.017Z,100521.55
2023-03-20T05:42:09.124Z,100524.78
2023-03-20T05:47:26.763Z,100526.44
2023-03-20T05:52:58.425Z,100526.71
2023-03-20T05:58:27.404Z,100523.95
2023-03-20T06:03:54.182Z,100523.79
2023-03-20T06:09:18.960Z,100524.53
2023-03-20T06:14:25.598Z,100519.25
2023-03-20T06:19:36.868Z,100515.91
2023-03-20T06:24:43.347Z,100519.15
2023-03-20T06:29:49.503Z,100520.73
2023-03-20T06:34:58.762Z,100518.50
2023-03-20T06:40:05.727Z,100510.25
2023-03-20T06:45:13.216Z,100513.85
2023-03-20T06:50:37.223Z,100513.13
2023-03-20T06:55:46.489Z,100510.20
2023-03-20T07:00:52.208Z,100512.25
2023-03-20T07:05:58.842Z,100510.74
2023-03-20T07:11:04.411Z,100507.10
2023-03-20T07:16:11.746Z,100513.59
2023-03-20T07:21:23.024Z,100512.60
2023-03-20T07:26:29.019Z,100515.58
2023-03-20T07:31:35.617Z,100513.60
2023-03-20T07:36:51.050Z,100511.35
2023-03-20T07:41:58.991Z,100509.71
2023-03-20T07:47:16.188Z,100512.89
2023-03-20T07:52:21.817Z,100506.05
2023-03-20T07:57:27.259Z,100506.50
2023-03-20T08:02:35.030Z,100501.88
2023-03-20T08:07:42.745Z,100502.48
2023-03-20T08:12:48.594Z,100501.34
2023-03-20T08:17:54.250Z,100502.81
2023-03-20T08:22:59.747Z,100499.12
2023-03-20T08:28:05.453Z,100496.58
2023-03-20T08:33:11.099Z,100494.92
2023-03-20T08:38:16.625Z,100493.30
2023-03-20T08:43:23.534Z,100492.18
2023-03-20T08:48:29.027Z,100494.01
2023-03-20T08:53:34.550Z,100498.43
2023-03-20T08:58:40.339Z,100495.50
2023-03-20T09:03:45.756Z,100497.53
2023-03-20T09:08:51.325Z,100499.56
2023-03-20T09:13:57.049Z,100494.90
2023-03-20T09:19:02.631Z,100495.20
2023-03-20T09:24:08.846Z,100496.34
2023-03-20T09:29:14.234Z,100502.60
2023-03-20T09:34:19.846Z,100488.65
2023-03-20T09:39:26.124Z,100483.52
2023-03-20T09:44:49.424Z,100483.55
2023-03-20T09:50:22.592Z,100478.25
2023-03-20T09:55:35.274Z,100473.52
2023-03-20T10:00:44.238Z,100477.52
2023-03-20T10:05:56.725Z,100475.54
2023-03-20T10:11:20.037Z,100478.55
2023-03-20T10:16:40.065Z,100476.27
2023-03-20T10:21:48.635Z,100481.41
2023-03-20T10:26:58.308Z,100487.29
2023-03-20T10:32:05.880Z,100488.24
2023-03-20T10:37:27.425Z,100487.66
2023-03-20T10:42:38.101Z,100492.90
2023-03-20T10:47:48.265Z,100485.44
2023-03-20T10:52:56.438Z,100481.17
2023-03-20T10:58:11.757Z,100482.13
2023-03-20T11:03:23.689Z,100478.79
2023-03-20T11:08:36.769Z,100472.46
2023-03-20T11:13:44.006Z,100467.17
2023-03-20T11:18:50.726Z,100460.08
2023-03-20T11:23:57.346Z,100451.01
2023-03-20T11:29:05.694Z,100452.60
2023-03-20T11:34:26.808Z,100454.05
2023-03-20T11:39:34.054Z,100448.60
2023-03-20T11:44:41.544Z,100446.27
2023-03-20T11:49:54.837Z,100441.10
2023-03-20T11:55:03.412Z,100435.17
2023-03-20T12:00:21.321Z,100433.56
2023-03-20T12:05:33.111Z,100424.98
2023-03-20T12:10:42.421Z,100415.95
2023-03-20T12:15:51.092Z,100415.54
2023-03-20T12:21:11.067Z,100406.71
2023-03-20T12:26:22.764Z,100410.54
2023-03-20T12:31:35.979Z,100403.59
2023-03-20T12:36:45.476Z,100412.81
2023-03-20T12:42:04.821Z,100404.62
2023-03-20T12:47:23.971Z,100403.96
2023-03-20T12:52:45.980Z,100402.57
2023-03-20T12:58:05.314Z,100407.14
2023-03-20T13:03:29.292Z,100405.41
2023-03-20T13:08:54.641Z,100396.42
2023-03-20T13:14:05.721Z,100395.78
2023-03-20T13:19:24.415Z,100395.05
2023-03-20T13:24:37.071Z,100391.27
2023-03-20T13:29:50.392Z,100395.00
2023-03-20T13:35:16.281Z,100392.48
2023-03-20T13:40:25.993Z,100388.29
2023-03-20T13:45:35.308Z,100386.89
2023-03-20T13:50:49.444Z,100385.48
2023-03-20T13:56:04.176Z,100383.34
2023-03-20T14:01:17.268Z,100381.00
2023-03-20T14:06:45.601Z,100379.98
2023-03-20T14:11:52.610Z,100391.60
2023-03-20T14:17:15.275Z,100395.59
2023-03-20T14:22:24.045Z,100396.83
2023-03-20T14:27:43.938Z,100400.14
2023-03-20T14:33:00.429Z,100398.70
2023-03-20T14:38:18.432Z,100403.00
2023-03-20T14:43:42.667Z,100407.50
2023-03-20T14:48:52.690Z,100408.44
2023-03-20T14:54:21.458Z,100412.50
2023-03-20T14:59:32.298Z,100415.55
2023-03-20T15:04:41.648Z,100422.76
2023-03-20T15:09:51.045Z,100425.20
2023-03-20T15:14:58.982Z,100424.73
2023-03-20T15:20:12.827Z,100422.74
2023-03-20T15:25:20.679Z,100426.55
2023-03-20T15:30:26.988Z,100432.05
2023-03-20T15:35:32.665Z,100427.21
2023-03-20T15:40:50.516Z,100422.27
2023-03-20T15:46:16.122Z,100430.69
2023-03-20T15:51:28.128Z,100431.80
2023-03-20T15:56:35.235Z,100436.13
2023-03-20T16:01:40.883Z,100445.70
2023-03-20T16:06:54.698Z,100441.41
2023-03-20T16:12:02.776Z,100443.38
2023-03-20T16:17:08.699Z,100442.23
2023-03-20T16:22:21.104Z,100435.16
2023-03-20T16:27:30.051Z,100435.43
2023-03-20T16:32:38.270Z,100436.50
2023-03-20T16:37:49.934Z,100432.77
2023-03-20T16:42:57.326Z,100431.69
2023-03-20T16:48:26.438Z,100425.61
2023-03-20T16:53:40.658Z,100429.86
2023-03-20T16:58:47.379Z,100431.70
2023-03-20T17:03:56.373Z,100433.11
2023-03-20T17:09:08.905Z,100442.71
2023-03-20T17:14:14.544Z,100449.23
2023-03-20T17:19:21.242Z,100447.27
2023-03-20T17:24:27.145Z,100449.03
2023-03-20T17:29:32.937Z,100451.79
2023-03-20T17:34:38.893Z,100449.11
2023-03-20T17:39:44.311Z,100450.89
2023-03-20T17:44:50.212Z,100446.01
2023-03-20T17:49:56.016Z,100445.48
2023-03-20T17:55:01.352Z,100440.11
2023-03-20T18:00:10.009Z,100447.12
2023-03-20T18:05:15.774Z,100450.44
2023-03-20T18:10:29.026Z,100448.70
2023-03-20T18:15:34.833Z,100451.86
2023-03-20T18:20:41.606Z,100448.56
2023-03-20T18:25:47.222Z,100447.38
2023-03-20T18:31:02.022Z,100449.52
2023-03-20T18:36:12.857Z,100456.05
2023-03-20T18:41:19.056Z,100449.04
2023-03-20T18:46:26.148Z,100447.13
2023-03-20T18:51:31.894Z,100445.52
2023-03-20T18:56:37.938Z,100452.64
2023-03-20T19:01:43.716Z,100447.35
2023-03-20T19:06:49.510Z,100449.36
2023-03-20T19:11:54.969Z,100447.23
2023-03-20T19:17:00.891Z,100452.86
2023-03-20T19:22:10.627Z,100453.62
2023-03-20T19:27:19.453Z,100454.28
2023-03-20T19:32:25.085Z,100452.67
2023-03-20T19:37:30.698Z,100448.07
2023-03-20T19:42:59.012Z,100452.74
2023-03-20T19:48:03.161Z,100451.53
2023-03-20T19:53:10.803Z,100449.59
2023-03-20T19:58:16.634Z,100450.77
2023-03-20T20:03:24.727Z,100448.06
2023-03-20T20:08:45.227Z,100441.64
2023-03-20T20:14:10.399Z,100439.55
2023-03-20T20:19:19.524Z,100435.45
2023-03-20T20:24:25.444Z,100442.25
2023-03-20T20:29:31.128Z,100452.63
2023-03-20T20:40:04.882Z,100468.05
2023-03-20T20:45:12.931Z,100474.27
2023-03-20T20:50:21.133Z,100475.55
2023-03-20T20:55:26.848Z,100476.92
2023-03-20T21:00:47.979Z,100477.56
2023-03-20T21:05:56.551Z,100471.69
2023-03-20T21:11:01.986Z,100470.70
2023-03-20T21:16:08.881Z,100474.78
2023-03-20T21:21:16.087Z,100472.73
2023-03-20T21:26:21.704Z,100466.96
2023-03-20T21:31:31.042Z,100468.43
2023-03-20T21:36:37.029Z,100466.39
2023-03-20T21:41:42.823Z,100461.38
2023-03-20T21:53:12.020Z,100470.18
2023-03-20T22:03:11.606Z,100463.58
2023-03-20T22:09:19.780Z,100462.64
2023-03-20T22:20:02.702Z,100459.52
2023-03-20T22:42:03.652Z,100464.07
2023-03-20T22:46:45.444Z,100469.67
2023-03-20T22:52:11.195Z,100471.86
2023-03-20T22:57:17.773Z,100469.67
2023-03-20T23:02:24.312Z,100471.30
2023-03-20T23:07:29.876Z,100469.77
2023-03-20T23:12:36.612Z,100468.21
2023-03-20T23:17:42.041Z,100463.87
2023-03-20T23:22:47.631Z,100463.48
2023-03-20T23:27:53.015Z,100461.11
2023-03-20T23:32:58.517Z,100456.96
2023-03-20T23:38:03.968Z,100453.39
2023-03-20T23:43:09.466Z,100450.13
2023-03-20T23:48:15.666Z,100449.34
2023-03-20T23:53:21.650Z,100452.33
2023-03-20T23:58:28.084Z,100450.76
